createdAt,value
2023-07-15T00:02:12.972Z,1.25
2023-07-15T00:04:41.882Z,1.13
2023-07-15T00:07:10.763Z,1.35
2023-07-15T00:09:39.537Z,1.40
2023-07-15T00:12:10.741Z,1.40
2023-07-15T00:14:40.379Z,1.10
2023-07-15T00:17:10.710Z,1.40
2023-07-15T00:19:40.802Z,1.35
2023-07-15T00:22:11.568Z,1.20
2023-07-15T00:24:40.350Z,1.60
2023-07-15T00:27:10.343Z,1.20
2023-07-15T00:29:40.067Z,1.35
2023-07-15T00:32:13.517Z,1.40
2023-07-15T00:34:42.409Z,1.40
2023-07-15T00:37:12.042Z,1.88
2023-07-15T00:39:41.665Z,1.50
2023-07-15T00:42:13.261Z,1.27
2023-07-15T00:44:42.908Z,1.50
2023-07-15T00:47:29.246Z,1.30
2023-07-15T00:49:59.685Z,1.30
2023-07-15T00:52:29.359Z,1.20
2023-07-15T00:54:58.723Z,1.25
2023-07-15T00:57:28.060Z,1.20
2023-07-15T00:59:59.799Z,1.63
2023-07-15T01:02:29.450Z,1.30
2023-07-15T01:04:59.759Z,1.33
2023-07-15T01:07:30.062Z,1.40
2023-07-15T01:09:58.941Z,1.10
2023-07-15T01:12:27.702Z,1.23
2023-07-15T01:14:56.709Z,1.58
2023-07-15T01:17:26.225Z,1.60
2023-07-15T01:19:55.445Z,1.42
2023-07-15T01:22:25.947Z,1.30
2023-07-15T01:24:56.061Z,1.50
2023-07-15T01:27:27.896Z,1.50
2023-07-15T01:29:56.832Z,1.50
2023-07-15T01:32:26.462Z,1.67
2023-07-15T01:34:55.216Z,1.45
2023-07-15T01:37:23.874Z,1.70
2023-07-15T01:39:53.474Z,1.77
2023-07-15T01:42:23.710Z,1.77
2023-07-15T01:44:52.512Z,1.55
2023-07-15T01:47:21.466Z,1.48
2023-07-15T01:49:50.219Z,1.40
2023-07-15T01:52:19.079Z,1.48
2023-07-15T01:54:47.784Z,1.63
2023-07-15T01:57:16.742Z,1.30
2023-07-15T01:59:46.904Z,1.48
2023-07-15T02:02:15.719Z,1.42
2023-07-15T02:04:44.566Z,1.63
2023-07-15T02:07:13.316Z,1.52
2023-07-15T02:09:42.043Z,1.40
2023-07-15T02:12:11.140Z,1.65
2023-07-15T02:14:39.879Z,1.50
2023-07-15T02:17:10.203Z,1.45
2023-07-15T02:19:39.039Z,1.70
2023-07-15T02:22:08.386Z,1.60
2023-07-15T02:24:37.266Z,1.42
2023-07-15T02:27:06.521Z,1.80
2023-07-15T02:29:36.028Z,1.50
2023-07-15T02:32:05.331Z,1.58
2023-07-15T02:34:35.483Z,1.48
2023-07-15T02:37:04.640Z,1.50
2023-07-15T02:39:35.700Z,1.50
2023-07-15T02:42:05.186Z,1.50
2023-07-15T02:44:33.958Z,1.30
2023-07-15T02:47:02.874Z,1.42
2023-07-15T02:49:31.643Z,1.80
2023-07-15T02:52:04.098Z,1.70
2023-07-15T02:54:32.862Z,1.42
2023-07-15T02:57:01.619Z,1.50
2023-07-15T02:59:30.360Z,1.60
2023-07-15T03:01:59.124Z,1.52
2023-07-15T03:04:28.429Z,1.90
2023-07-15T03:06:57.719Z,1.58
2023-07-15T03:09:28.204Z,1.80
2023-07-15T03:11:57.043Z,1.70
2023-07-15T03:14:25.768Z,1.77
2023-07-15T03:16:54.588Z,1.70
2023-07-15T03:19:23.339Z,1.70
2023-07-15T03:21:52.182Z,1.63
2023-07-15T03:24:21.114Z,1.70
2023-07-15T03:26:51.264Z,1.80
2023-07-15T03:29:20.034Z,1.80
2023-07-15T03:31:48.977Z,1.90
2023-07-15T03:34:17.874Z,1.60
2023-07-15T03:36:46.683Z,1.83
2023-07-15T03:39:15.451Z,1.60
2023-07-15T03:41:44.099Z,1.65
2023-07-15T03:44:14.741Z,1.80
2023-07-15T03:46:43.595Z,1.73
2023-07-15T03:49:12.430Z,1.95
2023-07-15T03:51:41.319Z,1.40
2023-07-15T03:54:10.132Z,1.70
2023-07-15T03:56:38.873Z,1.90
2023-07-15T03:59:07.872Z,1.60
2023-07-15T04:01:40.236Z,1.85
2023-07-15T04:04:10.584Z,1.80
2023-07-15T04:06:39.610Z,1.70
2023-07-15T04:09:08.327Z,1.90
2023-07-15T04:11:37.095Z,1.83
2023-07-15T04:14:05.852Z,1.90
2023-07-15T04:16:34.776Z,1.52
2023-07-15T04:19:05.056Z,1.80
2023-07-15T04:21:33.902Z,1.80
2023-07-15T04:24:02.805Z,2.17
2023-07-15T04:26:31.703Z,1.83
2023-07-15T04:29:01.136Z,1.70
2023-07-15T04:31:29.918Z,1.63
2023-07-15T04:33:58.694Z,1.88
2023-07-15T04:36:28.816Z,1.92
2023-07-15T04:38:57.568Z,1.70
2023-07-15T04:41:26.382Z,1.60
2023-07-15T04:43:55.142Z,1.60
2023-07-15T04:46:23.959Z,1.60
2023-07-15T04:48:52.710Z,1.60
2023-07-15T04:51:21.645Z,1.90
2023-07-15T04:53:52.163Z,1.73
2023-07-15T04:56:21.027Z,1.65
2023-07-15T04:58:50.180Z,2.33
2023-07-15T05:01:19.654Z,1.60
2023-07-15T05:03:48.556Z,1.80
2023-07-15T05:06:17.507Z,1.80
2023-07-15T05:08:46.268Z,1.98
2023-07-15T05:11:17.417Z,1.90
2023-07-15T05:13:47.715Z,1.83
2023-07-15T05:16:16.909Z,1.77
2023-07-15T05:18:45.763Z,2.13
2023-07-15T05:21:14.626Z,1.70
2023-07-15T05:23:43.395Z,2.15
2023-07-15T05:26:12.149Z,1.60
2023-07-15T05:28:42.320Z,1.42
2023-07-15T05:31:11.099Z,1.80
2023-07-15T05:33:39.914Z,1.58
2023-07-15T05:36:09.170Z,1.70
2023-07-15T05:38:45.242Z,1.60
2023-07-15T05:41:14.781Z,1.70
2023-07-15T05:43:45.117Z,1.40
2023-07-15T05:46:13.887Z,1.80
2023-07-15T05:48:42.743Z,1.63
2023-07-15T05:51:12.024Z,1.80
2023-07-15T05:53:42.998Z,1.90
2023-07-15T05:56:11.852Z,1.42
2023-07-15T05:58:40.584Z,1.83
2023-07-15T06:01:10.834Z,1.88
2023-07-15T06:03:39.761Z,1.63
2023-07-15T06:06:08.570Z,1.55
2023-07-15T06:08:37.362Z,1.52
2023-07-15T06:11:06.025Z,1.80
2023-07-15T06:13:35.054Z,1.52
2023-07-15T06:16:03.984Z,1.48
2023-07-15T06:18:34.200Z,1.70
2023-07-15T06:21:03.008Z,1.70
2023-07-15T06:23:31.692Z,1.63
2023-07-15T06:26:00.380Z,1.73
2023-07-15T06:28:29.108Z,1.60
2023-07-15T06:31:03.256Z,1.40
2023-07-15T06:33:32.283Z,1.60
2023-07-15T06:36:02.495Z,1.45
2023-07-15T06:38:31.382Z,1.60
2023-07-15T06:41:01.300Z,2.13
2023-07-15T06:43:30.417Z,1.55
2023-07-15T06:45:59.356Z,1.80
2023-07-15T06:48:28.096Z,1.17
2023-07-15T06:50:57.330Z,1.67
2023-07-15T06:53:27.477Z,1.30
2023-07-15T06:56:05.506Z,1.55
2023-07-15T06:58:45.139Z,1.73
2023-07-15T07:01:14.623Z,1.90
2023-07-15T07:03:46.147Z,1.60
2023-07-15T07:06:15.225Z,1.60
2023-07-15T07:08:45.449Z,1.50
2023-07-15T07:11:14.539Z,1.40
2023-07-15T07:13:43.636Z,1.60
2023-07-15T07:16:12.757Z,1.55
2023-07-15T07:18:41.712Z,1.67
2023-07-15T07:21:10.451Z,1.60
2023-07-15T07:23:39.188Z,1.65
2023-07-15T07:26:09.430Z,1.60
2023-07-15T07:28:42.299Z,1.63
2023-07-15T07:31:11.648Z,1.20
2023-07-15T07:33:41.038Z,2.05
2023-07-15T07:36:09.954Z,1.48
2023-07-15T07:38:38.715Z,1.70
2023-07-15T07:41:09.161Z,1.60
2023-07-15T07:43:38.452Z,1.30
2023-07-15T07:46:08.198Z,1.40
2023-07-15T07:48:37.055Z,1.40
2023-07-15T07:51:05.871Z,1.30
2023-07-15T07:53:34.697Z,1.17
2023-07-15T07:56:03.471Z,1.30
2023-07-15T07:58:34.142Z,1.20
2023-07-15T08:01:02.950Z,1.38
2023-07-15T08:03:31.781Z,1.27
2023-07-15T08:06:01.881Z,1.40
2023-07-15T08:08:30.643Z,1.30
2023-07-15T08:10:59.419Z,1.23
2023-07-15T08:13:28.235Z,1.10
2023-07-15T08:15:58.487Z,1.25
2023-07-15T08:18:27.299Z,1.40
2023-07-15T08:20:56.049Z,1.20
2023-07-15T08:23:24.917Z,1.27
2023-07-15T08:25:55.490Z,1.13
2023-07-15T08:28:24.311Z,1.10
2023-07-15T08:30:53.098Z,1.15
2023-07-15T08:33:23.200Z,1.20
2023-07-15T08:35:51.945Z,1.30
2023-07-15T08:38:20.780Z,1.20
2023-07-15T08:40:51.439Z,1.05
2023-07-15T08:43:20.978Z,1.17
2023-07-15T08:45:51.779Z,1.20
2023-07-15T08:48:20.558Z,1.17
2023-07-15T08:50:51.541Z,1.00
2023-07-15T08:53:24.454Z,1.15
2023-07-15T08:55:53.841Z,0.98
2023-07-15T08:58:23.624Z,1.20
2023-07-15T09:00:52.745Z,1.10
2023-07-15T09:03:21.972Z,1.10
2023-07-15T09:05:52.221Z,1.27
2023-07-15T09:08:21.005Z,1.20
2023-07-15T09:10:53.718Z,1.25
2023-07-15T09:13:26.690Z,1.20
2023-07-15T09:15:55.562Z,0.90
2023-07-15T09:18:24.601Z,1.00
2023-07-15T09:21:09.190Z,1.10
2023-07-15T09:23:40.335Z,1.20
2023-07-15T09:26:09.155Z,1.10
2023-07-15T09:28:38.028Z,1.10
2023-07-15T09:31:06.955Z,0.90
2023-07-15T09:33:36.698Z,1.00
2023-07-15T09:36:07.510Z,1.10
2023-07-15T09:38:37.878Z,1.10
2023-07-15T09:41:10.284Z,1.17
2023-07-15T09:43:57.330Z,1.20
2023-07-15T09:46:29.448Z,1.10
2023-07-15T09:48:59.063Z,1.20
2023-07-15T09:51:29.411Z,1.58
2023-07-15T09:53:59.987Z,1.15
2023-07-15T09:56:30.472Z,1.10
2023-07-15T09:59:01.219Z,1.20
2023-07-15T10:01:35.399Z,1.33
2023-07-15T10:04:08.330Z,1.20
2023-07-15T10:06:38.553Z,1.20
2023-07-15T10:09:07.609Z,1.08
2023-07-15T10:11:36.746Z,0.98
2023-07-15T10:14:06.133Z,0.93
2023-07-15T10:16:36.418Z,1.00
2023-07-15T10:19:05.247Z,0.90
2023-07-15T10:21:34.046Z,1.10
2023-07-15T10:24:11.506Z,1.20
2023-07-15T10:26:50.830Z,1.00
2023-07-15T10:29:19.602Z,1.30
2023-07-15T10:32:09.653Z,1.00
2023-07-15T10:34:39.032Z,1.08
2023-07-15T10:37:12.685Z,0.80
2023-07-15T10:39:43.558Z,0.93
2023-07-15T10:42:13.130Z,1.15
2023-07-15T10:44:42.638Z,1.00
2023-07-15T10:47:11.724Z,1.10
2023-07-15T10:49:40.601Z,1.00
2023-07-15T10:52:10.960Z,1.20
2023-07-15T10:54:40.257Z,1.00
2023-07-15T10:57:11.342Z,1.10
2023-07-15T10:59:40.486Z,1.08
2023-07-15T11:02:09.742Z,1.30
2023-07-15T11:04:39.457Z,1.30
2023-07-15T11:07:09.319Z,1.30
2023-07-15T11:09:39.899Z,1.27
2023-07-15T11:12:11.199Z,1.13
2023-07-15T11:14:41.820Z,1.08
2023-07-15T11:17:10.721Z,1.00
2023-07-15T11:19:39.629Z,1.10
2023-07-15T11:22:09.903Z,1.50
2023-07-15T11:24:38.782Z,1.40
2023-07-15T11:27:07.864Z,1.20
2023-07-15T11:29:37.985Z,1.35
2023-07-15T11:32:08.051Z,1.45
2023-07-15T11:34:36.945Z,1.38
2023-07-15T11:37:09.374Z,1.20
2023-07-15T11:39:43.041Z,1.27
2023-07-15T11:42:11.912Z,1.30
2023-07-15T11:44:42.085Z,1.25
2023-07-15T11:47:12.212Z,1.20
2023-07-15T11:49:46.938Z,1.00
2023-07-15T11:52:22.675Z,1.27
2023-07-15T11:54:51.452Z,1.30
2023-07-15T11:57:27.108Z,1.40
2023-07-15T11:59:57.315Z,1.45
2023-07-15T12:02:29.087Z,1.23
2023-07-15T12:04:58.183Z,1.35
2023-07-15T12:07:27.085Z,1.20
2023-07-15T12:10:08.816Z,1.42
2023-07-15T12:12:37.683Z,1.40
2023-07-15T12:15:08.517Z,1.10
2023-07-15T12:17:37.307Z,1.38
2023-07-15T12:20:07.124Z,1.10
2023-07-15T12:22:36.135Z,1.10
2023-07-15T12:25:05.172Z,1.00
2023-07-15T12:27:34.198Z,1.50
2023-07-15T12:30:05.209Z,1.25
2023-07-15T12:32:35.938Z,1.20
2023-07-15T12:35:04.988Z,1.33
2023-07-15T12:37:33.764Z,0.90
2023-07-15T12:40:02.524Z,1.30
2023-07-15T12:42:31.802Z,1.10
2023-07-15T12:45:00.575Z,1.30
2023-07-15T12:47:29.377Z,1.10
2023-07-15T12:49:59.550Z,1.20
2023-07-15T12:52:28.310Z,1.15
2023-07-15T12:54:57.058Z,1.27
2023-07-15T12:57:25.762Z,1.13
2023-07-15T12:59:54.400Z,1.10
2023-07-15T13:02:23.110Z,1.30
2023-07-15T13:04:51.833Z,1.10
2023-07-15T13:07:22.964Z,1.00
2023-07-15T13:09:51.694Z,1.30
2023-07-15T13:12:20.584Z,1.45
2023-07-15T13:14:49.323Z,1.33
2023-07-15T13:17:18.058Z,1.23
2023-07-15T13:19:46.821Z,1.30
2023-07-15T13:22:17.127Z,1.50
2023-07-15T13:24:49.288Z,1.25
2023-07-15T13:27:17.983Z,1.30
2023-07-15T13:29:46.735Z,1.45
2023-07-15T13:32:15.535Z,1.42
2023-07-15T13:34:44.358Z,1.85
2023-07-15T13:37:13.244Z,1.10
2023-07-15T13:39:43.648Z,1.50
2023-07-15T13:42:14.984Z,1.30
2023-07-15T13:44:43.787Z,1.30
2023-07-15T13:47:12.595Z,1.50
2023-07-15T13:49:41.300Z,1.45
2023-07-15T13:52:10.155Z,1.42
2023-07-15T13:54:39.010Z,1.30
2023-07-15T13:57:08.052Z,1.20
2023-07-15T13:59:38.700Z,1.25
2023-07-15T14:02:08.414Z,1.45
2023-07-15T14:04:37.075Z,1.70
2023-07-15T14:07:08.307Z,1.17
2023-07-15T14:09:38.556Z,1.30
2023-07-15T14:12:07.764Z,1.42
2023-07-15T14:14:37.810Z,1.38
2023-07-15T14:17:09.036Z,1.33
2023-07-15T14:19:37.923Z,1.30
2023-07-15T14:22:16.527Z,1.20
2023-07-15T14:24:47.728Z,1.35
2023-07-15T14:27:16.648Z,1.42
2023-07-15T14:29:46.968Z,1.40
2023-07-15T14:32:15.749Z,1.20
2023-07-15T14:34:44.763Z,1.20
2023-07-15T14:37:13.820Z,1.45
2023-07-15T14:39:42.574Z,1.40
2023-07-15T14:42:11.307Z,1.38
2023-07-15T14:44:40.140Z,1.30
2023-07-15T14:47:10.514Z,1.25
2023-07-15T14:49:39.285Z,1.40
2023-07-15T14:52:08.554Z,1.58
2023-07-15T14:54:38.813Z,1.20
2023-07-15T14:57:08.110Z,1.20
2023-07-15T14:59:36.952Z,1.30
2023-07-15T15:02:05.921Z,1.35
2023-07-15T15:04:36.041Z,1.40
2023-07-15T15:07:04.999Z,1.27
2023-07-15T15:09:33.673Z,1.70
2023-07-15T15:12:06.142Z,1.33
2023-07-15T15:14:36.053Z,1.30
2023-07-15T15:17:05.210Z,1.20
2023-07-15T15:19:34.077Z,1.40
2023-07-15T15:22:04.228Z,1.30
2023-07-15T15:24:33.080Z,1.33
2023-07-15T15:27:01.958Z,1.20
2023-07-15T15:29:30.771Z,1.30
2023-07-15T15:32:00.126Z,1.30
2023-07-15T15:34:28.882Z,1.30
2023-07-15T15:36:57.783Z,1.27
2023-07-15T15:39:27.953Z,1.27
2023-07-15T15:41:56.649Z,1.10
2023-07-15T15:44:25.320Z,1.30
2023-07-15T15:46:55.451Z,1.30
2023-07-15T15:49:24.383Z,1.30
2023-07-15T15:51:53.071Z,1.40
2023-07-15T15:54:21.782Z,1.10
2023-07-15T15:56:51.916Z,1.50
2023-07-15T15:59:20.677Z,1.30
2023-07-15T16:01:49.475Z,1.30
2023-07-15T16:04:18.457Z,1.20
2023-07-15T16:06:48.000Z,1.15
2023-07-15T16:09:16.799Z,1.20
2023-07-15T16:11:45.545Z,1.20
2023-07-15T16:14:15.738Z,1.27
2023-07-15T16:16:44.525Z,1.23
2023-07-15T16:19:13.296Z,1.10
2023-07-15T16:21:42.041Z,1.40
2023-07-15T16:24:10.780Z,1.20
2023-07-15T16:26:39.592Z,1.30
2023-07-15T16:29:08.417Z,1.30
2023-07-15T16:31:40.388Z,1.30
2023-07-15T16:34:09.185Z,1.30
2023-07-15T16:36:37.944Z,1.23
2023-07-15T16:39:06.726Z,1.30
2023-07-15T16:41:35.627Z,1.15
2023-07-15T16:44:04.443Z,1.10
2023-07-15T16:46:33.282Z,1.27
2023-07-15T16:49:03.686Z,1.02
2023-07-15T16:51:32.481Z,1.00
2023-07-15T16:54:01.279Z,1.20
2023-07-15T16:56:30.042Z,1.30
2023-07-15T16:58:58.764Z,1.17
2023-07-15T17:01:30.164Z,1.10
2023-07-15T17:03:59.229Z,1.20
2023-07-15T17:06:29.492Z,1.00
2023-07-15T17:08:58.178Z,1.10
2023-07-15T17:11:26.945Z,1.30
2023-07-15T17:13:56.053Z,1.10
2023-07-15T17:16:25.293Z,1.25
2023-07-15T17:18:55.602Z,1.33
2023-07-15T17:21:24.762Z,1.10
2023-07-15T17:23:54.849Z,1.40
2023-07-15T17:26:23.666Z,1.42
2023-07-15T17:28:52.404Z,1.10
2023-07-15T17:31:21.195Z,0.90
2023-07-15T17:33:49.975Z,1.00
2023-07-15T17:36:18.776Z,1.30
2023-07-15T17:38:47.648Z,1.27
2023-07-15T17:41:17.996Z,1.25
2023-07-15T17:43:47.165Z,1.30
2023-07-15T17:46:15.946Z,1.40
2023-07-15T17:48:44.646Z,1.30
2023-07-15T17:51:13.583Z,1.20
2023-07-15T17:53:42.573Z,1.10
2023-07-15T17:56:11.334Z,1.17
2023-07-15T17:58:41.437Z,1.20
2023-07-15T18:01:10.265Z,1.02
2023-07-15T18:03:39.071Z,1.00
2023-07-15T18:06:07.932Z,2.10
2023-07-15T18:08:36.665Z,1.45
2023-07-15T18:11:05.542Z,1.38
2023-07-15T18:13:34.383Z,1.30
2023-07-15T18:16:05.436Z,1.20
2023-07-15T18:18:34.267Z,1.30
2023-07-15T18:21:03.040Z,1.30
2023-07-15T18:23:31.745Z,1.48
2023-07-15T18:26:00.486Z,1.30
2023-07-15T18:28:29.313Z,1.45
2023-07-15T18:30:58.127Z,1.75
2023-07-15T18:33:28.249Z,1.50
2023-07-15T18:35:57.246Z,1.63
2023-07-15T18:38:25.931Z,1.60
2023-07-15T18:40:54.665Z,1.38
2023-07-15T18:43:24.138Z,1.38
2023-07-15T18:45:52.846Z,1.55
2023-07-15T18:48:21.588Z,1.40
2023-07-15T18:50:51.868Z,1.60
2023-07-15T18:53:20.573Z,1.45
2023-07-15T18:55:49.343Z,1.35
2023-07-15T18:58:18.099Z,1.70
2023-07-15T19:00:47.131Z,1.63
2023-07-15T19:03:18.756Z,1.25
2023-07-15T19:05:47.742Z,1.40
2023-07-15T19:08:17.871Z,1.60
2023-07-15T19:10:46.685Z,1.48
2023-07-15T19:13:15.331Z,1.80
2023-07-15T19:15:44.144Z,1.38
2023-07-15T19:18:12.966Z,1.48
2023-07-15T19:20:41.902Z,1.60
2023-07-15T19:23:10.800Z,1.45
2023-07-15T19:25:41.169Z,1.42
2023-07-15T19:28:10.025Z,1.40
2023-07-15T19:30:38.938Z,1.50
2023-07-15T19:33:07.838Z,1.40
2023-07-15T19:35:36.702Z,1.50
2023-07-15T19:38:05.424Z,1.63
2023-07-15T19:40:34.133Z,1.40
2023-07-15T19:43:04.272Z,1.50
2023-07-15T19:45:33.344Z,1.60
2023-07-15T19:48:02.159Z,1.40
2023-07-15T19:50:31.027Z,1.30
2023-07-15T19:52:59.741Z,1.35
2023-07-15T19:55:28.784Z,1.40
2023-07-15T19:57:57.579Z,1.70
2023-07-15T20:00:27.888Z,1.52
2023-07-15T20:02:56.721Z,1.40
2023-07-15T20:05:25.611Z,1.75
2023-07-15T20:07:54.325Z,1.63
2023-07-15T20:10:23.150Z,1.80
2023-07-15T20:12:52.107Z,1.50
2023-07-15T20:15:20.942Z,1.50
2023-07-15T20:17:51.106Z,1.40
2023-07-15T20:20:19.911Z,1.40
2023-07-15T20:22:48.730Z,1.55
2023-07-15T20:25:17.598Z,1.30
2023-07-15T20:27:46.281Z,1.55
2023-07-15T20:30:15.245Z,1.40
2023-07-15T20:32:43.964Z,1.30
2023-07-15T20:35:14.089Z,1.35
2023-07-15T20:37:42.916Z,1.25
2023-07-15T20:40:12.911Z,1.52
2023-07-15T20:42:41.778Z,1.73
2023-07-15T20:45:10.951Z,1.55
2023-07-15T20:47:45.836Z,1.50
2023-07-15T20:50:18.071Z,1.40
2023-07-15T20:52:47.030Z,1.70
2023-07-15T20:55:15.819Z,1.80
2023-07-15T20:57:44.490Z,1.60
2023-07-15T21:00:13.788Z,1.42
2023-07-15T21:02:42.558Z,1.42
2023-07-15T21:05:11.663Z,1.70
2023-07-15T21:07:41.715Z,1.50
2023-07-15T21:10:10.782Z,1.60
2023-07-15T21:12:39.462Z,1.58
2023-07-15T21:15:08.633Z,1.70
2023-07-15T21:17:37.422Z,1.52
2023-07-15T21:20:06.618Z,1.80
2023-07-15T21:22:35.458Z,1.50
2023-07-15T21:25:05.985Z,1.70
2023-07-15T21:27:34.755Z,1.80
2023-07-15T21:30:03.502Z,1.50
2023-07-15T21:32:32.315Z,1.77
2023-07-15T21:35:01.198Z,1.50
2023-07-15T21:37:30.090Z,1.65
2023-07-15T21:39:58.968Z,1.70
2023-07-15T21:42:29.039Z,1.80
2023-07-15T21:44:57.762Z,2.05
2023-07-15T21:47:27.443Z,1.77
2023-07-15T21:49:56.345Z,1.90
2023-07-15T21:52:25.013Z,1.73
2023-07-15T21:54:53.794Z,1.67
2023-07-15T21:57:22.488Z,1.60
2023-07-15T21:59:52.682Z,1.70
2023-07-15T22:02:22.558Z,1.58
2023-07-15T22:04:51.377Z,1.80
2023-07-15T22:07:20.121Z,1.83
2023-07-15T22:09:48.870Z,1.60
2023-07-15T22:12:17.635Z,1.40
2023-07-15T22:14:46.472Z,1.67
2023-07-15T22:17:16.641Z,1.70
2023-07-15T22:19:45.332Z,1.80
2023-07-15T22:22:14.535Z,1.60
2023-07-15T22:24:43.390Z,1.50
2023-07-15T22:27:12.142Z,1.85
2023-07-15T22:29:40.887Z,1.65
2023-07-15T22:32:10.132Z,1.88
2023-07-15T22:34:40.188Z,1.60
2023-07-15T22:37:09.032Z,1.75
2023-07-15T22:39:37.869Z,1.85
2023-07-15T22:42:07.187Z,1.85
2023-07-15T22:44:36.007Z,1.80
2023-07-15T22:47:04.766Z,2.03
2023-07-15T22:49:33.587Z,1.73
2023-07-15T22:52:03.687Z,1.70
2023-07-15T22:54:32.876Z,1.80
2023-07-15T22:57:02.022Z,2.03
2023-07-15T22:59:30.743Z,1.73
2023-07-15T23:01:59.463Z,1.90
2023-07-15T23:04:29.053Z,1.80
2023-07-15T23:07:00.350Z,1.75
2023-07-15T23:09:30.745Z,1.60
2023-07-15T23:11:59.712Z,1.50
2023-07-15T23:14:28.541Z,1.42
2023-07-15T23:16:57.311Z,1.45
2023-07-15T23:19:26.127Z,1.50
2023-07-15T23:21:54.857Z,1.50
2023-07-15T23:24:23.540Z,1.60
2023-07-15T23:26:54.074Z,1.50
2023-07-15T23:29:22.844Z,1.38
2023-07-15T23:31:51.616Z,1.58
2023-07-15T23:34:20.306Z,1.80
2023-07-15T23:36:49.051Z,1.73
2023-07-15T23:39:17.838Z,1.90
2023-07-15T23:41:46.554Z,1.83
2023-07-15T23:44:16.858Z,1.77
2023-07-15T23:46:45.706Z,1.60
2023-07-15T23:49:14.501Z,1.48
2023-07-15T23:51:43.193Z,1.40
2023-07-15T23:54:11.981Z,1.73
2023-07-15T23:56:40.805Z,1.88
2023-07-15T23:59:09.569Z,1.90
